Time;durP1;ratioP1;P1;durP2;ratioP2;P2;SDS_P1;SDS_P2;PMS_P1;PMS_P2;Temp;Humidity;BMP_temperature;BMP_pressure;BME280_temperature;BME280_humidity;BME280_pressure;Samples;Min_cycle;Max_cycle;Signal;HPM_P1;HPM_P2
2023/06/20 00:00:23;;;;;;;11.27;6.35;;;;;;;20.34;64.52;101387.13;6095507;19;19999;-71
2023/06/20 00:02:28;;;;;;;13.45;6.65;;;;;;;20.34;64.73;101389.78;6096473;19;20507;-73
2023/06/20 00:04:33;;;;;;;12.20;6.68;;;;;;;20.35;64.71;101389.69;6097822;19;20443;-71
2023/06/20 00:06:39;;;;;;;13.88;6.60;;;;;;;20.37;64.28;101393.06;6095521;19;20013;-70
2023/06/20 00:08:44;;;;;;;13.73;6.57;;;;;;;20.39;64.25;101383.13;6095322;19;20317;-72
2023/06/20 00:10:49;;;;;;;11.77;5.65;;;;;;;20.44;64.30;101384.63;6088810;19;20006;-71
2023/06/20 00:12:55;;;;;;;11.30;6.20;;;;;;;20.40;64.00;101383.97;6092160;19;20007;-71
2023/06/20 00:15:04;;;;;;;13.13;6.72;;;;;;;20.46;63.86;101385.34;6094584;19;20015;-71
2023/06/20 00:17:09;;;;;;;12.55;6.85;;;;;;;20.43;63.90;101374.91;6094788;19;20002;-71
2023/06/20 00:19:14;;;;;;;14.05;6.57;;;;;;;20.41;63.96;101375.03;6097003;19;20023;-71
2023/06/20 00:21:20;;;;;;;13.13;7.25;;;;;;;20.38;64.15;101377.94;6097261;19;20387;-72
2023/06/20 00:23:26;;;;;;;12.52;6.25;;;;;;;20.39;64.11;101387.63;6090678;19;20641;-74
2023/06/20 00:25:31;;;;;;;14.55;7.43;;;;;;;20.36;64.46;101387.84;6101878;19;20745;-75
2023/06/20 00:27:36;;;;;;;12.38;7.10;;;;;;;20.34;64.37;101387.13;6099961;19;20017;-76
2023/06/20 00:29:47;;;;;;;13.85;7.45;;;;;;;20.32;64.45;101378.34;6098071;19;20002;-74
2023/06/20 00:31:55;;;;;;;12.70;7.60;;;;;;;20.38;64.24;101380.59;6098494;19;20182;-74
2023/06/20 00:34:02;;;;;;;11.57;6.40;;;;;;;20.34;64.60;101376.44;6096776;19;20038;-76
2023/06/20 00:36:08;;;;;;;12.85;6.57;;;;;;;20.36;65.17;101372.69;6097762;19;20385;-74
2023/06/20 00:38:13;;;;;;;12.68;6.68;;;;;;;20.34;65.57;101371.94;6092276;19;20010;-74
2023/06/20 00:40:21;;;;;;;14.30;7.30;;;;;;;20.30;65.35;101372.28;6099642;19;20007;-76
2023/06/20 00:42:27;;;;;;;13.73;6.82;;;;;;;20.35;66.14;101375.47;6098672;19;20339;-75
2023/06/20 00:44:35;;;;;;;11.55;6.68;;;;;;;20.33;65.87;101372.91;6102150;19;20051;-71
2023/06/20 00:46:42;;;;;;;12.77;7.50;;;;;;;20.34;65.50;101365.75;6102961;19;20357;-71
2023/06/20 00:48:50;;;;;;;10.95;7.25;;;;;;;20.32;65.30;101365.00;6102710;19;20014;-70
2023/06/20 00:50:55;;;;;;;15.15;7.45;;;;;;;20.28;64.88;101367.06;6103650;19;20078;-73
2023/06/20 00:53:04;;;;;;;13.85;8.52;;;;;;;20.22;65.18;101364.84;6098056;19;20101;-70
2023/06/20 00:55:11;;;;;;;12.77;6.75;;;;;;;20.23;65.39;101371.88;6102387;19;20227;-71
2023/06/20 00:57:21;;;;;;;14.32;6.90;;;;;;;20.25;65.17;101364.63;6100243;19;20042;-71
2023/06/20 00:59:29;;;;;;;12.45;7.00;;;;;;;20.22;65.70;101363.97;6098819;19;20389;-72
2023/06/20 01:01:37;;;;;;;12.95;6.88;;;;;;;20.12;66.47;101369.16;6097220;19;20007;-71
2023/06/20 01:03:42;;;;;;;13.70;7.75;;;;;;;20.14;66.15;101370.75;6097752;19;20034;-72
2023/06/20 01:06:05;;;;;;;13.95;6.93;;;;;;;20.17;66.06;101361.66;6101063;19;20103;-70
2023/06/20 01:08:17;;;;;;;12.95;7.40;;;;;;;20.14;65.55;101357.41;6097191;19;20035;-70
2023/06/20 01:10:32;;;;;;;12.57;7.00;;;;;;;20.09;65.21;101356.88;6096579;19;20011;-71
2023/06/20 01:12:45;;;;;;;11.57;6.72;;;;;;;20.11;65.37;101359.41;6093114;19;20373;-71
2023/06/20 01:14:59;;;;;;;12.68;6.97;;;;;;;20.06;64.87;101357.06;6094203;19;20045;-71
2023/06/20 01:17:12;;;;;;;15.68;7.18;;;;;;;20.08;64.84;101352.50;6096935;19;20685;-70
2023/06/20 01:19:29;;;;;;;12.43;6.85;;;;;;;20.05;64.95;101358.06;6100452;19;20043;-71
2023/06/20 01:21:42;;;;;;;13.18;6.88;;;;;;;20.08;64.51;101348.97;6100511;19;20105;-71
2023/06/20 01:23:57;;;;;;;13.52;6.75;;;;;;;20.06;64.48;101349.06;6102425;19;20017;-70
2023/06/20 01:26:08;;;;;;;11.88;6.40;;;;;;;20.04;64.40;101345.69;6099908;19;20058;-70
2023/06/20 01:28:26;;;;;;;11.95;6.35;;;;;;;20.10;64.41;101344.38;6101510;19;20377;-71
2023/06/20 01:30:42;;;;;;;12.52;6.60;;;;;;;20.06;64.37;101338.41;6095421;19;20015;-71
2023/06/20 01:32:49;;;;;;;13.57;6.35;;;;;;;20.05;64.43;101335.88;6096321;19;20010;-70
2023/06/20 01:35:03;;;;;;;13.13;7.13;;;;;;;20.01;64.28;101337.91;6095988;19;20007;-72
2023/06/20 01:37:16;;;;;;;11.95;7.07;;;;;;;19.98;64.44;101335.44;6093684;19;20467;-71
2023/06/20 01:39:27;;;;;;;12.65;7.00;;;;;;;19.95;64.43;101333.84;6094871;19;20002;-70
2023/06/20 01:41:38;;;;;;;11.27;6.35;;;;;;;19.91;64.24;101331.53;6073327;19;20376;-71
2023/06/20 01:43:44;;;;;;;11.93;6.47;;;;;;;19.92;64.37;101331.41;6096681;19;20014;-70
2023/06/20 01:45:51;;;;;;;12.63;7.00;;;;;;;19.86;64.41;101334.53;6097239;19;20002;-70
2023/06/20 01:47:59;;;;;;;12.07;6.70;;;;;;;19.86;64.38;101342.53;6095450;19;20007;-72
2023/06/20 01:50:05;;;;;;;11.88;6.28;;;;;;;19.81;64.59;101333.16;6092467;19;20063;-71
2023/06/20 01:52:13;;;;;;;14.23;6.32;;;;;;;19.82;64.49;101334.84;6093147;19;20014;-72
2023/06/20 01:54:20;;;;;;;12.70;6.82;;;;;;;19.84;64.20;101331.09;6093137;19;20070;-71
2023/06/20 01:56:29;;;;;;;11.32;5.72;;;;;;;19.83;64.35;101331.22;6094543;19;20094;-73
2023/06/20 01:58:35;;;;;;;10.70;6.13;;;;;;;19.81;64.01;101335.81;6076414;19;20007;-70
2023/06/20 02:00:41;;;;;;;14.70;6.55;;;;;;;19.85;63.92;101334.63;6093896;19;20007;-70
2023/06/20 02:02:51;;;;;;;11.50;6.07;;;;;;;19.85;64.14;101324.81;6099659;19;20081;-72
2023/06/20 02:04:59;;;;;;;11.82;7.10;;;;;;;19.90;63.99;101322.66;6095206;19;20042;-71
2023/06/20 02:07:05;;;;;;;13.85;6.97;;;;;;;19.85;63.95;101324.81;6096438;19;20072;-71
2023/06/20 02:09:11;;;;;;;13.93;7.47;;;;;;;19.90;64.33;101316.47;6094190;19;20010;-70
2023/06/20 02:11:17;;;;;;;12.27;6.53;;;;;;;19.91;64.27;101313.72;6098214;19;20404;-75
2023/06/20 02:13:28;;;;;;;11.75;6.15;;;;;;;19.88;63.91;101305.94;6068952;19;20499;-75
2023/06/20 02:15:34;;;;;;;12.88;6.65;;;;;;;19.83;64.64;101312.56;6095055;19;20011;-76
2023/06/20 02:17:42;;;;;;;13.02;6.85;;;;;;;19.84;64.59;101324.94;6097057;19;20459;-75
2023/06/20 02:19:50;;;;;;;12.43;6.32;;;;;;;19.85;64.75;101323.94;6095824;19;20010;-75
2023/06/20 02:21:59;;;;;;;15.80;7.05;;;;;;;19.83;64.57;101328.56;6095601;19;20022;-75
2023/06/20 02:24:08;;;;;;;14.75;7.18;;;;;;;19.80;64.74;101326.97;6094026;19;20392;-76
2023/06/20 02:26:16;;;;;;;12.77;6.97;;;;;;;19.80;64.64;101326.09;6093539;19;20006;-76
2023/06/20 02:28:23;;;;;;;13.23;6.32;;;;;;;19.84;64.35;101325.78;6093365;19;20010;-75
2023/06/20 02:30:33;;;;;;;15.57;7.13;;;;;;;19.83;64.64;101325.91;6095085;19;20024;-75
2023/06/20 02:32:39;;;;;;;11.43;6.40;;;;;;;19.89;64.49;101312.97;6095806;19;20007;-75
2023/06/20 02:34:48;;;;;;;11.55;6.25;;;;;;;19.84;64.68;101315.09;6096168;19;20006;-76
2023/06/20 02:36:57;;;;;;;12.48;6.47;;;;;;;19.84;64.47;101308.91;6092883;19;20018;-75
2023/06/20 02:39:04;;;;;;;13.77;6.63;;;;;;;19.85;64.47;101307.94;6093642;19;20011;-75
2023/06/20 02:41:09;;;;;;;11.05;6.60;;;;;;;19.86;64.40;101309.66;6094974;19;20274;-76
2023/06/20 02:43:14;;;;;;;10.90;5.78;;;;;;;19.82;64.45;101303.69;6095093;19;20078;-76
2023/06/20 02:45:25;;;;;;;13.15;6.88;;;;;;;19.80;64.76;101304.75;6092835;19;20010;-74
2023/06/20 02:47:58;;;;;;;14.80;6.88;;;;;;;19.76;65.05;101300.63;6094702;19;20029;-74
2023/06/20 02:50:11;;;;;;;14.70;7.40;;;;;;;19.77;64.63;101296.97;6095148;19;20827;-75
2023/06/20 02:52:25;;;;;;;11.77;6.45;;;;;;;19.84;64.58;101300.91;6092998;19;20011;-75
2023/06/20 02:54:38;;;;;;;13.65;6.82;;;;;;;19.82;64.54;101292.16;6091067;19;20003;-75
2023/06/20 02:56:46;;;;;;;10.73;6.30;;;;;;;19.86;64.39;101293.66;6092751;19;20455;-75
2023/06/20 02:58:55;;;;;;;18.55;6.65;;;;;;;19.81;64.69;101288.66;6088442;19;20009;-74
2023/06/20 03:01:05;;;;;;;14.70;6.82;;;;;;;19.81;64.89;101285.16;6090910;19;20010;-75
2023/06/20 03:03:17;;;;;;;12.73;6.78;;;;;;;19.77;65.17;101287.16;6088699;19;20066;-75
2023/06/20 03:05:27;;;;;;;15.57;7.70;;;;;;;19.78;65.34;101285.38;6090407;19;20015;-76
2023/06/20 03:07:34;;;;;;;14.05;6.75;;;;;;;19.84;64.84;101283.09;6097127;19;20010;-75
2023/06/20 03:09:40;;;;;;;12.50;7.10;;;;;;;19.84;64.84;101279.59;6097241;19;20028;-76
2023/06/20 03:11:46;;;;;;;14.68;7.10;;;;;;;19.85;64.94;101283.94;6099672;19;20014;-74
2023/06/20 03:13:52;;;;;;;12.32;6.50;;;;;;;19.83;65.79;101278.75;6097428;19;20025;-77
2023/06/20 03:16:00;;;;;;;14.88;7.45;;;;;;;19.84;65.20;101282.25;6095502;19;20011;-75
2023/06/20 03:18:11;;;;;;;13.82;8.07;;;;;;;19.78;65.64;101282.72;6096339;19;20048;-75
2023/06/20 03:20:20;;;;;;;13.20;7.68;;;;;;;19.73;65.76;101289.22;6097780;19;20010;-75
2023/06/20 03:22:25;;;;;;;12.38;6.75;;;;;;;19.72;65.66;101292.84;6096531;19;20366;-74
2023/06/20 03:24:30;;;;;;;12.50;7.20;;;;;;;19.70;65.86;101289.44;6096312;19;20013;-76
2023/06/20 03:26:36;;;;;;;12.15;6.55;;;;;;;19.72;65.77;101287.53;6098552;19;20011;-75
2023/06/20 03:28:41;;;;;;;14.23;7.03;;;;;;;19.73;65.93;101294.53;6098451;19;20013;-76
2023/06/20 03:30:46;;;;;;;14.02;7.57;;;;;;;19.70;65.86;101286.78;6102147;19;20003;-75
2023/06/20 03:32:51;;;;;;;13.43;7.20;;;;;;;19.68;65.92;101286.03;6099929;19;20006;-74
2023/06/20 03:34:56;;;;;;;14.15;6.95;;;;;;;19.68;65.96;101287.84;6102148;19;20498;-75
2023/06/20 03:37:06;;;;;;;14.07;7.32;;;;;;;19.66;65.79;101292.38;6099467;19;20006;-76
2023/06/20 03:39:12;;;;;;;14.82;6.90;;;;;;;19.64;66.15;101281.84;6097285;19;20035;-75
2023/06/20 03:41:17;;;;;;;15.07;7.53;;;;;;;19.70;65.78;101278.78;6101245;19;20363;-75
2023/06/20 03:43:25;;;;;;;14.18;7.22;;;;;;;19.72;65.76;101281.31;6093695;19;20048;-73
2023/06/20 03:45:31;;;;;;;14.38;8.27;;;;;;;19.74;65.64;101285.56;6097436;19;20015;-76
2023/06/20 03:47:36;;;;;;;12.32;7.25;;;;;;;19.72;66.11;101295.50;6098851;19;20007;-75
2023/06/20 03:49:41;;;;;;;11.48;6.60;;;;;;;19.69;65.95;101298.38;6096904;19;20368;-75
2023/06/20 03:51:50;;;;;;;16.17;7.07;;;;;;;19.73;65.47;101294.53;6096050;19;20002;-74
2023/06/20 03:53:59;;;;;;;15.10;8.18;;;;;;;19.73;66.07;101294.53;6091800;19;20078;-74
2023/06/20 03:56:04;;;;;;;13.35;6.60;;;;;;;19.74;65.73;101296.22;6096649;19;20003;-74
2023/06/20 03:58:09;;;;;;;15.55;7.25;;;;;;;19.72;65.94;101295.50;6091819;19;20148;-75
2023/06/20 04:00:15;;;;;;;15.30;7.97;;;;;;;19.73;65.82;101289.22;6093389;19;20011;-76
2023/06/20 04:02:21;;;;;;;13.35;7.20;;;;;;;19.79;65.66;101289.72;6098290;19;20010;-75
2023/06/20 04:04:26;;;;;;;13.02;7.18;;;;;;;19.81;65.21;101294.00;6093775;19;20584;-74
2023/06/20 04:06:34;;;;;;;14.73;7.47;;;;;;;19.78;65.27;101290.72;6091316;19;20007;-74
2023/06/20 04:08:42;;;;;;;12.68;7.20;;;;;;;19.78;65.38;101296.03;6089029;19;20010;-77
2023/06/20 04:10:51;;;;;;;14.52;8.02;;;;;;;19.78;65.44;101290.72;6090348;19;20035;-75
2023/06/20 04:12:56;;;;;;;15.98;7.05;;;;;;;19.78;65.49;101296.88;6092492;19;20026;-75
2023/06/20 04:15:01;;;;;;;12.82;7.70;;;;;;;19.81;65.72;101291.31;6092284;19;20271;-75
2023/06/20 04:17:07;;;;;;;12.30;7.65;;;;;;;19.82;65.11;101292.16;6094832;19;20021;-74
2023/06/20 04:19:12;;;;;;;13.15;7.07;;;;;;;19.78;65.50;101291.56;6100288;19;20014;-74
2023/06/20 04:21:20;;;;;;;15.63;7.47;;;;;;;19.80;65.65;101291.44;6095296;19;20014;-74
2023/06/20 04:23:25;;;;;;;16.08;7.68;;;;;;;19.80;65.90;101296.75;6102501;19;20439;-75
2023/06/20 04:25:34;;;;;;;12.98;7.25;;;;;;;19.80;65.70;101291.44;6106449;19;20467;-75
2023/06/20 04:27:41;;;;;;;14.82;8.10;;;;;;;19.83;65.87;101299.22;6103335;19;20011;-75
2023/06/20 04:29:48;;;;;;;14.45;7.75;;;;;;;19.84;65.99;101291.09;6104164;19;20464;-75
2023/06/20 04:31:53;;;;;;;12.90;7.07;;;;;;;19.84;65.58;101296.44;6103526;19;20007;-74
2023/06/20 04:33:59;;;;;;;12.52;6.88;;;;;;;19.86;66.06;101291.84;6101435;19;20519;-75
2023/06/20 04:36:04;;;;;;;13.45;7.05;;;;;;;19.87;65.60;101290.88;6100539;19;20011;-74
2023/06/20 04:38:09;;;;;;;15.75;8.02;;;;;;;19.88;65.78;101281.03;6097229;19;20071;-74
2023/06/20 04:40:14;;;;;;;15.95;7.93;;;;;;;19.89;66.00;101275.63;6092040;19;20039;-76
2023/06/20 04:42:20;;;;;;;15.02;7.72;;;;;;;19.91;65.77;101276.38;6099238;19;20445;-77
2023/06/20 04:44:28;;;;;;;14.68;7.63;;;;;;;19.98;65.25;101266.06;6095873;19;20006;-74
2023/06/20 04:46:33;;;;;;;14.77;7.40;;;;;;;20.07;65.36;101270.75;6103520;19;20017;-74
2023/06/20 04:48:38;;;;;;;13.75;7.35;;;;;;;20.13;64.54;101275.63;6098664;19;20984;-76
2023/06/20 04:50:44;;;;;;;13.88;7.88;;;;;;;20.12;65.02;101268.59;6100359;19;20504;-75
2023/06/20 04:52:50;;;;;;;14.57;8.15;;;;;;;20.23;64.96;101272.28;6097035;19;20053;-74
2023/06/20 04:55:02;;;;;;;13.75;7.93;;;;;;;20.24;64.78;101265.97;6099565;19;20030;-75
2023/06/20 04:57:07;;;;;;;13.93;7.93;;;;;;;20.27;64.84;101268.41;6100185;19;20787;-76
2023/06/20 04:59:12;;;;;;;14.48;7.57;;;;;;;20.32;64.52;101272.44;6099247;19;20003;-75
2023/06/20 05:01:23;;;;;;;13.48;7.57;;;;;;;20.34;64.83;101261.66;6096638;19;20044;-76
2023/06/20 05:03:28;;;;;;;13.85;7.32;;;;;;;20.36;64.43;101267.75;6097741;19;20025;-74
2023/06/20 05:05:33;;;;;;;15.32;8.35;;;;;;;20.43;63.84;101268.97;6102532;19;20075;-74
2023/06/20 05:07:39;;;;;;;13.20;7.43;;;;;;;20.44;64.66;101267.16;6095780;19;20006;-74
2023/06/20 05:09:44;;;;;;;13.48;7.18;;;;;;;20.48;63.83;101268.63;6095553;19;20313;-74
2023/06/20 05:11:49;;;;;;;15.70;8.45;;;;;;;20.47;64.07;101262.44;6093318;19;20035;-74
2023/06/20 05:13:56;;;;;;;15.40;8.60;;;;;;;20.54;63.86;101263.72;6100719;19;20030;-74
2023/06/20 05:16:02;;;;;;;13.60;8.55;;;;;;;20.54;63.92;101260.19;6095808;19;20006;-74
2023/06/20 05:18:10;;;;;;;14.88;8.48;;;;;;;20.53;64.11;101264.63;6100394;19;20039;-74
2023/06/20 05:20:15;;;;;;;14.60;7.70;;;;;;;20.65;64.08;101268.25;6098051;19;20034;-75
2023/06/20 05:22:24;;;;;;;17.95;9.15;;;;;;;20.66;63.87;101261.91;6100991;19;20061;-74
2023/06/20 05:24:30;;;;;;;17.40;8.15;;;;;;;20.70;63.52;101266.06;6097479;19;20010;-74
2023/06/20 05:26:35;;;;;;;16.58;8.55;;;;;;;20.63;63.99;101266.66;6098822;19;20407;-75
2023/06/20 05:28:40;;;;;;;15.82;8.60;;;;;;;20.68;64.52;101269.81;6096582;19;20079;-75
2023/06/20 05:30:45;;;;;;;16.27;9.00;;;;;;;20.70;64.20;101262.56;6100475;19;20015;-75
2023/06/20 05:32:51;;;;;;;15.40;8.27;;;;;;;20.67;64.18;101254.75;6098245;19;20002;-75
2023/06/20 05:35:03;;;;;;;17.75;9.18;;;;;;;20.77;63.92;101247.75;6096969;19;20014;-74
2023/06/20 05:37:08;;;;;;;17.50;9.95;;;;;;;20.75;63.87;101249.69;6097224;19;20031;-75
2023/06/20 05:39:13;;;;;;;15.45;8.35;;;;;;;20.86;63.81;101251.53;6096485;19;20046;-74
2023/06/20 05:41:19;;;;;;;16.38;9.23;;;;;;;20.91;64.00;101239.53;6098470;19;20002;-75
2023/06/20 05:43:25;;;;;;;15.27;8.88;;;;;;;20.93;63.69;101239.38;6090709;19;20107;-74
2023/06/20 05:45:30;;;;;;;17.58;9.38;;;;;;;20.97;63.52;101233.69;6093544;19;20384;-74
2023/06/20 05:47:35;;;;;;;18.40;8.88;;;;;;;21.02;63.92;101236.00;6097293;19;20094;-75
2023/06/20 05:49:40;;;;;;;17.83;9.52;;;;;;;21.09;63.51;101237.25;6093745;19;20022;-74
2023/06/20 05:51:51;;;;;;;18.00;9.32;;;;;;;21.09;63.75;101241.72;6096396;19;20218;-75
2023/06/20 05:53:57;;;;;;;19.98;9.48;;;;;;;21.17;63.22;101236.63;6094344;19;20047;-75
2023/06/20 05:56:05;;;;;;;17.88;8.80;;;;;;;21.36;62.83;101236.88;6095807;19;20463;-74
2023/06/20 05:58:10;;;;;;;16.77;8.90;;;;;;;21.64;61.97;101248.91;6093458;19;20003;-76
2023/06/20 06:00:16;;;;;;;16.50;9.90;;;;;;;21.87;61.41;101243.50;6093092;19;20006;-74
2023/06/20 06:02:24;;;;;;;16.85;9.40;;;;;;;21.86;61.40;101248.00;6094164;19;20010;-76
2023/06/20 06:04:31;;;;;;;20.65;9.50;;;;;;;22.02;61.17;101257.47;6097261;19;20602;-75
2023/06/20 06:06:36;;;;;;;21.10;9.60;;;;;;;21.78;61.40;101249.63;6094547;19;20034;-74
2023/06/20 06:08:44;;;;;;;18.90;10.40;;;;;;;21.77;61.64;101248.75;6097919;19;20010;-74
2023/06/20 06:10:49;;;;;;;17.63;9.65;;;;;;;21.72;61.45;101245.59;6097765;19;19999;-74
2023/06/20 06:12:58;;;;;;;17.70;10.40;;;;;;;21.85;61.25;101246.31;6094160;19;20006;-76
2023/06/20 06:15:03;;;;;;;18.67;10.60;;;;;;;21.85;61.68;101245.44;6097071;19;20006;-75
2023/06/20 06:17:08;;;;;;;19.05;9.73;;;;;;;22.02;61.51;101249.44;6094222;19;20031;-74
2023/06/20 06:19:13;;;;;;;17.33;9.88;;;;;;;21.77;61.96;101248.75;6100356;19;20042;-75
2023/06/20 06:21:21;;;;;;;18.65;10.18;;;;;;;22.00;61.16;101251.38;6097694;19;20019;-75
2023/06/20 06:23:29;;;;;;;18.08;10.40;;;;;;;21.80;61.49;101242.31;6093867;19;20121;-75
2023/06/20 06:25:37;;;;;;;15.77;10.32;;;;;;;22.00;61.25;101238.84;6096185;19;20062;-75
2023/06/20 06:27:42;;;;;;;19.55;11.50;;;;;;;21.93;61.16;101240.31;6099687;19;20038;-75
2023/06/20 06:29:47;;;;;;;22.63;12.20;;;;;;;21.89;60.88;101244.25;6096409;19;20436;-76
2023/06/20 06:31:58;;;;;;;16.70;9.82;;;;;;;22.09;60.89;101237.22;6093823;19;20070;-75
2023/06/20 06:34:05;;;;;;;19.58;11.25;;;;;;;22.14;60.52;101235.03;6100443;19;20020;-74
2023/06/20 06:36:11;;;;;;;20.83;10.68;;;;;;;22.27;60.20;101233.03;6096401;19;20007;-74
2023/06/20 06:38:16;;;;;;;22.75;12.32;;;;;;;22.33;60.30;101242.41;6099738;19;20010;-74
2023/06/20 06:40:22;;;;;;;19.05;10.68;;;;;;;22.20;60.57;101234.56;6099245;19;20038;-75
2023/06/20 06:42:31;;;;;;;20.35;12.27;;;;;;;22.26;60.79;101225.16;6102671;19;20474;-75
2023/06/20 06:44:36;;;;;;;19.73;12.52;;;;;;;22.47;61.02;101222.50;6101638;19;20011;-75
2023/06/20 06:46:41;;;;;;;22.58;12.02;;;;;;;22.70;59.93;101213.34;6099907;19;20022;-74
2023/06/20 06:48:48;;;;;;;25.13;13.45;;;;;;;23.03;58.52;101216.78;6101031;19;20019;-76
2023/06/20 06:50:57;;;;;;;21.67;11.95;;;;;;;23.26;57.35;101214.78;6100773;19;20011;-75
2023/06/20 06:53:03;;;;;;;22.45;12.93;;;;;;;23.15;58.08;101209.53;6095080;19;20060;-74
2023/06/20 06:55:09;;;;;;;23.75;12.27;;;;;;;23.13;58.33;101206.97;6099447;19;20508;-74
2023/06/20 06:57:14;;;;;;;22.75;13.30;;;;;;;23.17;58.36;101203.06;6101084;19;20262;-74
2023/06/20 06:59:22;;;;;;;26.00;12.43;;;;;;;23.02;58.90;101192.81;6101829;19;20010;-75
2023/06/20 07:01:28;;;;;;;22.13;13.68;;;;;;;23.10;58.52;101191.16;6090376;19;20034;-74
2023/06/20 07:03:34;;;;;;;24.52;12.98;;;;;;;23.16;58.17;101182.56;6095800;19;20639;-74
2023/06/20 07:05:39;;;;;;;26.60;13.65;;;;;;;23.64;56.87;101179.19;6095745;19;20063;-75
2023/06/20 07:07:44;;;;;;;22.50;13.93;;;;;;;23.67;56.60;101178.03;6101722;19;20049;-74
2023/06/20 07:09:52;;;;;;;24.33;13.35;;;;;;;23.66;56.47;101176.34;6097097;19;20429;-74
2023/06/20 07:11:58;;;;;;;26.55;14.10;;;;;;;23.45;57.19;101176.44;6098747;19;20066;-74
2023/06/20 07:14:04;;;;;;;24.55;14.40;;;;;;;23.48;57.65;101178.84;6090785;19;20014;-75
2023/06/20 07:16:12;;;;;;;23.40;13.80;;;;;;;23.49;57.76;101183.25;6086491;19;20349;-73
2023/06/20 07:18:17;;;;;;;25.17;13.68;;;;;;;23.37;57.91;101182.50;6092138;19;21020;-73
2023/06/20 07:20:25;;;;;;;23.48;13.57;;;;;;;23.57;58.04;101191.44;6094154;19;20084;-74
2023/06/20 07:22:31;;;;;;;24.48;12.98;;;;;;;24.28;56.03;101180.50;6093022;19;20002;-73
2023/06/20 07:24:36;;;;;;;24.42;13.90;;;;;;;24.64;55.55;101188.78;6094713;19;20031;-73
2023/06/20 07:26:41;;;;;;;23.15;14.55;;;;;;;24.89;53.79;101189.16;6095321;19;20002;-74
2023/06/20 07:28:48;;;;;;;25.67;14.40;;;;;;;25.18;52.85;101191.75;6092126;19;20042;-68
2023/06/20 07:30:55;;;;;;;27.40;15.38;;;;;;;25.55;52.82;101193.53;6092296;19;20007;-69
2023/06/20 07:33:05;;;;;;;29.20;14.43;;;;;;;26.10;51.55;101189.94;6090754;19;20014;-70
2023/06/20 07:35:11;;;;;;;26.75;15.07;;;;;;;25.97;51.00;101193.84;6091450;19;20014;-69
2023/06/20 07:37:16;;;;;;;27.65;14.23;;;;;;;26.20;51.54;101199.59;6093158;19;20035;-69
2023/06/20 07:39:21;;;;;;;24.83;14.88;;;;;;;26.09;51.08;101193.59;6096912;19;20014;-69
2023/06/20 07:41:26;;;;;;;25.45;13.95;;;;;;;26.00;51.83;101204.31;6095874;19;20467;-69
2023/06/20 07:43:31;;;;;;;25.42;14.70;;;;;;;26.35;50.61;101207.13;6094554;19;20444;-70
2023/06/20 07:45:36;;;;;;;22.88;13.88;;;;;;;26.19;51.19;101211.38;6093883;19;20017;-68
2023/06/20 07:47:41;;;;;;;23.65;14.20;;;;;;;26.46;50.13;101210.44;6089672;19;25765;-69
2023/06/20 07:49:49;;;;;;;24.33;15.65;;;;;;;26.55;50.79;101207.81;6094826;19;20015;-69
2023/06/20 07:51:55;;;;;;;24.20;13.68;;;;;;;27.09;49.63;101201.25;6097708;19;20006;-69
2023/06/20 07:54:02;;;;;;;23.48;13.77;;;;;;;27.23;48.96;101205.22;6100004;19;20011;-69
2023/06/20 07:56:09;;;;;;;23.13;13.57;;;;;;;27.42;48.98;101200.56;6105703;19;20402;-69
2023/06/20 07:58:14;;;;;;;23.45;14.45;;;;;;;27.43;48.38;101197.69;6100310;19;20019;-70
2023/06/20 08:00:21;;;;;;;24.90;14.43;;;;;;;27.75;47.41;101198.78;6106154;19;20034;-69
2023/06/20 08:02:28;;;;;;;25.25;13.43;;;;;;;27.63;47.27;101194.72;6105556;19;20470;-69
2023/06/20 08:04:34;;;;;;;25.58;13.73;;;;;;;27.45;49.02;101190.28;6107247;19;20011;-69
2023/06/20 08:06:41;;;;;;;27.13;15.30;;;;;;;27.39;48.55;101196.34;6104916;19;20355;-69
2023/06/20 08:08:46;;;;;;;23.08;13.88;;;;;;;27.34;48.97;101206.78;6111966;19;20014;-69
2023/06/20 08:10:52;;;;;;;25.45;13.98;;;;;;;27.93;47.39;101199.50;6108170;19;20011;-69
2023/06/20 08:13:00;;;;;;;25.08;15.43;;;;;;;27.81;47.69;101200.88;6108675;19;20008;-69
2023/06/20 08:15:06;;;;;;;23.60;15.43;;;;;;;27.96;47.09;101199.19;6110743;19;20023;-69
2023/06/20 08:17:13;;;;;;;26.42;14.35;;;;;;;28.30;46.81;101195.47;6105567;19;20002;-68
2023/06/20 08:19:19;;;;;;;23.10;12.95;;;;;;;28.19;46.59;101193.97;6108522;19;20011;-70
2023/06/20 08:21:26;;;;;;;25.42;13.32;;;;;;;28.79;45.87;101192.75;6106804;19;20013;-68
2023/06/20 08:23:34;;;;;;;21.60;13.00;;;;;;;28.69;45.91;101188.53;6111270;19;20047;-70
2023/06/20 08:25:39;;;;;;;23.80;14.32;;;;;;;28.51;46.11;101191.44;6108756;19;20009;-70
2023/06/20 08:27:45;;;;;;;23.08;12.57;;;;;;;28.33;46.18;101189.75;6107518;19;20035;-69
2023/06/20 08:29:50;;;;;;;18.30;11.18;;;;;;;28.74;44.75;101181.59;6105546;19;20014;-69
2023/06/20 08:31:55;;;;;;;19.42;12.00;;;;;;;28.71;44.78;101176.53;6108475;19;20385;-69
2023/06/20 08:34:03;;;;;;;18.20;11.10;;;;;;;29.02;44.22;101173.06;6106185;19;20007;-68
2023/06/20 08:36:08;;;;;;;17.92;11.60;;;;;;;29.36;43.88;101180.91;6104623;19;20010;-68
2023/06/20 08:38:13;;;;;;;18.58;11.20;;;;;;;29.19;44.16;101177.41;6106692;19;20015;-68
2023/06/20 08:40:21;;;;;;;21.60;11.98;;;;;;;28.51;45.25;101184.16;6104910;19;20030;-68
2023/06/20 08:42:31;;;;;;;24.30;12.80;;;;;;;29.28;44.50;101186.31;6111007;19;20361;-69
2023/06/20 08:44:36;;;;;;;19.95;10.73;;;;;;;30.02;42.91;101177.78;6109177;19;20005;-67
2023/06/20 08:47:03;;;;;;;17.50;9.93;;;;;;;29.83;43.51;101170.97;6106028;19;20010;-68
2023/06/20 08:49:09;;;;;;;15.75;10.25;;;;;;;29.15;43.20;101173.38;6109444;19;20837;-69
2023/06/20 08:51:17;;;;;;;15.88;9.55;;;;;;;29.49;43.66;101174.88;6106521;19;20006;-69
2023/06/20 08:53:24;;;;;;;17.48;10.38;;;;;;;29.57;45.34;101174.84;6096532;19;20422;-70
2023/06/20 08:55:33;;;;;;;17.38;10.80;;;;;;;29.57;43.36;101165.88;6104892;19;20007;-69
2023/06/20 08:57:39;;;;;;;18.88;10.75;;;;;;;29.61;44.33;101169.91;6108553;19;20002;-70
2023/06/20 08:59:44;;;;;;;19.55;10.82;;;;;;;29.87;43.95;101175.03;6105458;19;20015;-69
2023/06/20 09:01:49;;;;;;;19.90;11.60;;;;;;;30.11;43.57;101168.56;6108083;19;20006;-70
2023/06/20 09:03:56;;;;;;;16.92;10.65;;;;;;;30.30;43.14;101159.94;6103530;19;20434;-71
2023/06/20 09:06:01;;;;;;;19.85;10.32;;;;;;;29.65;44.38;101160.44;6104768;19;20615;-74
2023/06/20 09:08:12;;;;;;;17.95;10.23;;;;;;;29.23;45.33;101161.69;6102762;19;20065;-74
2023/06/20 09:10:23;;;;;;;15.07;9.45;;;;;;;30.28;42.71;101167.44;6103575;19;20013;-73
2023/06/20 09:12:45;;;;;;;13.07;8.02;;;;;;;30.56;42.28;101164.09;6103999;19;20078;-74
2023/06/20 09:14:51;;;;;;;16.42;9.05;;;;;;;30.67;41.49;101152.78;6104052;19;20072;-74
2023/06/20 09:16:58;;;;;;;15.25;9.23;;;;;;;30.46;43.05;101156.22;6102376;19;20015;-74
2023/06/20 09:19:04;;;;;;;16.88;10.00;;;;;;;30.43;42.81;101153.06;6105607;19;20384;-74
2023/06/20 09:21:16;;;;;;;15.82;9.95;;;;;;;30.39;42.64;101160.72;6104253;19;20022;-75
2023/06/20 09:23:29;;;;;;;15.77;9.88;;;;;;;30.37;42.61;101160.91;6096646;19;20039;-73
2023/06/20 09:25:39;;;;;;;16.27;10.07;;;;;;;29.56;43.66;101165.03;6089027;19;20102;-73
2023/06/20 09:27:47;;;;;;;17.92;10.73;;;;;;;29.41;44.45;101161.41;6100956;19;20024;-72
2023/06/20 09:30:00;;;;;;;13.65;9.23;;;;;;;30.27;43.72;101162.19;6100259;19;20021;-70
2023/06/20 09:32:05;;;;;;;;;;;;;;;30.27;42.33;101165.72;6094956;19;20006;-70
2023/06/20 09:34:14;;;;;;;15.57;9.02;;;;;;;30.43;41.83;101167.44;6100490;19;20583;-70
2023/06/20 09:36:26;;;;;;;15.23;9.07;;;;;;;30.87;41.29;101173.97;6100438;19;20332;-70
2023/06/20 09:38:34;;;;;;;16.33;9.07;;;;;;;30.91;41.71;101169.84;6099550;19;20006;-70
2023/06/20 09:40:46;;;;;;;13.98;9.20;;;;;;;30.36;42.30;101163.78;6100899;19;20013;-71
2023/06/20 09:42:59;;;;;;;16.08;8.55;;;;;;;30.73;41.01;101162.03;6096328;19;20118;-70